Time;durP1;ratioP1;P1;durP2;ratioP2;P2;SDS_P1;SDS_P2;PMS_P1;PMS_P2;Temp;Humidity;BMP_temperature;BMP_pressure;BME280_temperature;BME280_humidity;BME280_pressure;Samples;Min_cycle;Max_cycle;Signal;HPM_P1;HPM_P2
2022/10/16 00:01:22;;;;;;;;;;;13.20;99.90;;;;;;5093390;27;38538;-56
2022/10/16 00:03:49;;;;;;;;;;;13.20;99.90;;;;;;5091822;27;37433;-54
2022/10/16 00:06:19;;;;;;;;;;;13.20;99.90;;;;;;5090954;27;37017;-57
2022/10/16 00:08:46;;;;;;;;;;;13.10;99.90;;;;;;5088739;27;37664;-55
2022/10/16 00:11:15;;;;;;;;;;;13.20;99.90;;;;;;5094962;27;37822;-55
2022/10/16 00:13:44;;;;;;;;;;;13.20;99.90;;;;;;5093250;27;35431;-53
2022/10/16 00:16:16;;;;;;;;;;;13.20;99.90;;;;;;5092317;27;38018;-56
2022/10/16 00:18:44;;;;;;;;;;;13.20;99.90;;;;;;5097709;27;39581;-53
2022/10/16 00:21:12;;;;;;;;;;;13.20;99.90;;;;;;5098940;27;39297;-53
2022/10/16 00:23:39;;;;;;;;;;;13.20;99.90;;;;;;5084958;27;37103;-55
2022/10/16 00:26:08;;;;;;;;;;;13.20;99.90;;;;;;5090337;27;38407;-55
2022/10/16 00:28:35;;;;;;;;;;;13.20;99.90;;;;;;5080973;27;38009;-53
2022/10/16 00:31:05;;;;;;;;;;;13.20;99.90;;;;;;5095545;27;37488;-54
2022/10/16 00:33:34;;;;;;;;;;;13.20;99.90;;;;;;5096282;27;37073;-56
2022/10/16 00:36:02;;;;;;;;;;;13.20;99.90;;;;;;5085114;27;38394;-56
2022/10/16 00:38:29;;;;;;;;;;;13.20;99.90;;;;;;5082687;27;38068;-54
2022/10/16 00:40:56;;;;;;;;;;;13.20;99.90;;;;;;5094859;27;39526;-53
2022/10/16 00:43:42;;;;;;;;;;;13.20;99.90;;;;;;5095105;27;35920;-56
2022/10/16 00:46:19;;;;;;;;;;;13.20;99.90;;;;;;5085839;27;37997;-56
2022/10/16 00:48:49;;;;;;;;;;;13.20;99.90;;;;;;5093681;27;39427;-55
2022/10/16 00:51:16;;;;;;;;;;;13.20;99.90;;;;;;5096551;27;38669;-55
2022/10/16 00:53:45;;;;;;;;;;;13.20;99.90;;;;;;5087164;27;37672;-55
2022/10/16 00:56:16;;;;;;;;;;;13.20;99.90;;;;;;5091316;27;37562;-57
2022/10/16 00:58:44;;;;;;;;;;;13.20;99.90;;;;;;5099288;27;38727;-56
2022/10/16 01:01:12;;;;;;;;;;;13.20;99.90;;;;;;5086848;27;38521;-55
2022/10/16 01:03:41;;;;;;;;;;;13.20;99.90;;;;;;5096541;27;37873;-55
2022/10/16 01:06:26;;;;;;;;;;;13.20;99.90;;;;;;5090788;27;38748;-53
2022/10/16 01:09:05;;;;;;;;;;;13.20;99.90;;;;;;5086071;27;36994;-56
2022/10/16 01:11:35;;;;;;;;;;;13.20;99.90;;;;;;5092119;27;38717;-56
2022/10/16 01:14:07;;;;;;;;;;;13.20;99.90;;;;;;5096076;27;37432;-55
2022/10/16 01:16:36;;;;;;;;;;;13.20;99.90;;;;;;5083537;27;36082;-56
2022/10/16 01:19:09;;;;;;;;;;;13.20;99.90;;;;;;5090736;27;38069;-54
2022/10/16 01:21:37;;;;;;;;;;;13.20;99.90;;;;;;5091513;27;38175;-55
2022/10/16 01:24:16;;;;;;;;;;;13.20;99.90;;;;;;5090853;27;36541;-53
2022/10/16 01:26:53;;;;;;;;;;;13.20;99.90;;;;;;5088855;27;38176;-55
2022/10/16 01:29:31;;;;;;;;;;;13.20;99.90;;;;;;5094823;27;36502;-55
2022/10/16 01:32:00;;;;;;;;;;;13.20;99.90;;;;;;5089038;27;38632;-54
2022/10/16 01:34:33;;;;;;;;;;;13.20;99.90;;;;;;5090460;27;36734;-55
2022/10/16 01:37:03;;;;;;;;;;;13.20;99.90;;;;;;5092551;27;37187;-54
2022/10/16 01:39:32;;;;;;;;;;;13.20;99.90;;;;;;5096908;27;37592;-55
2022/10/16 01:42:01;;;;;;;;;;;13.20;99.90;;;;;;5089119;27;38309;-55
2022/10/16 01:44:31;;;;;;;;;;;13.20;99.90;;;;;;5089339;27;37279;-54
2022/10/16 01:46:58;;;;;;;;;;;13.20;99.90;;;;;;5086304;27;37204;-54
2022/10/16 01:49:27;;;;;;;;;;;13.20;99.90;;;;;;5092794;27;39194;-53
2022/10/16 01:51:56;;;;;;;;;;;13.20;99.90;;;;;;5090485;27;37880;-55
2022/10/16 01:54:24;;;;;;;;;;;13.30;99.90;;;;;;5085704;27;36143;-56
2022/10/16 01:56:52;;;;;;;;;;;13.30;99.90;;;;;;5094604;27;37830;-55
2022/10/16 01:59:20;;;;;;;;;;;13.30;99.90;;;;;;5095617;27;40193;-56
2022/10/16 02:01:51;;;;;;;;;;;13.30;99.90;;;;;;5090920;27;39116;-55
2022/10/16 02:04:21;;;;;;;;;;;13.30;99.90;;;;;;5083509;27;35526;-55
2022/10/16 02:06:49;;;;;;;;;;;13.30;99.90;;;;;;5097118;27;38456;-55
2022/10/16 02:09:16;;;;;;;;;;;13.30;99.90;;;;;;5094037;27;38862;-55
2022/10/16 02:11:43;;;;;;;;;;;13.40;99.90;;;;;;5095313;27;36668;-56
2022/10/16 02:14:15;;;;;;;;;;;13.30;99.90;;;;;;5098857;27;36964;-55
2022/10/16 02:16:43;;;;;;;;;;;13.30;99.90;;;;;;5086152;27;38478;-56
2022/10/16 02:19:13;;;;;;;;;;;13.40;99.90;;;;;;5098205;27;38896;-56
2022/10/16 02:21:42;;;;;;;;;;;13.30;99.90;;;;;;5099531;27;36370;-55
2022/10/16 02:24:19;;;;;;;;;;;13.40;99.90;;;;;;5095297;27;37998;-56
2022/10/16 02:26:49;;;;;;;;;;;13.40;99.90;;;;;;5090224;27;36491;-57
2022/10/16 02:29:18;;;;;;;;;;;13.30;99.90;;;;;;5099193;27;39031;-56
2022/10/16 02:31:47;;;;;;;;;;;13.40;99.90;;;;;;5085913;27;38055;-55
2022/10/16 02:34:19;;;;;;;;;;;13.40;99.90;;;;;;5093159;27;36712;-56
2022/10/16 02:36:48;;;;;;;;;;;13.40;99.90;;;;;;5099107;27;37708;-55
2022/10/16 02:39:15;;;;;;;;;;;13.40;99.90;;;;;;5091845;27;37112;-56
2022/10/16 02:41:43;;;;;;;;;;;13.40;99.90;;;;;;5100490;27;38386;-55
2022/10/16 02:44:16;;;;;;;;;;;13.40;99.90;;;;;;5091925;27;36713;-56
2022/10/16 02:46:43;;;;;;;;;;;13.40;99.90;;;;;;5096742;27;37348;-56
2022/10/16 02:49:10;;;;;;;;;;;13.40;99.90;;;;;;5093992;27;39311;-56
2022/10/16 02:51:39;;;;;;;;;;;13.40;99.90;;;;;;5100835;27;35968;-57
2022/10/16 02:54:06;;;;;;;;;;;13.40;99.90;;;;;;5084821;27;37802;-55
2022/10/16 02:56:33;;;;;;;;;;;13.40;99.90;;;;;;5088414;27;38465;-54
2022/10/16 02:59:00;;;;;;;;;;;13.30;99.90;;;;;;5097362;27;37996;-54
2022/10/16 03:01:27;;;;;;;;;;;13.40;99.90;;;;;;5095682;27;38890;-55
2022/10/16 03:03:54;;;;;;;;;;;13.30;99.90;;;;;;5095603;27;36459;-55
2022/10/16 03:06:21;;;;;;;;;;;13.40;99.90;;;;;;5089180;27;38529;-55
2022/10/16 03:08:50;;;;;;;;;;;13.30;99.90;;;;;;5088045;27;38365;-56
2022/10/16 03:11:17;;;;;;;;;;;13.30;99.90;;;;;;5096795;27;37572;-56
2022/10/16 03:13:44;;;;;;;;;;;13.40;99.90;;;;;;5094514;27;36852;-55
2022/10/16 03:16:12;;;;;;;;;;;13.30;99.90;;;;;;5094916;27;38349;-57
2022/10/16 03:18:41;;;;;;;;;;;13.30;99.90;;;;;;5093474;27;39569;-56
2022/10/16 03:21:08;;;;;;;;;;;13.30;99.90;;;;;;5096732;27;37470;-53
2022/10/16 03:23:35;;;;;;;;;;;13.30;99.90;;;;;;5089902;27;36216;-57
2022/10/16 03:26:04;;;;;;;;;;;13.30;99.90;;;;;;5092462;27;38366;-56
2022/10/16 03:28:31;;;;;;;;;;;13.30;99.90;;;;;;5088323;27;38657;-56
2022/10/16 03:30:58;;;;;;;;;;;13.30;99.90;;;;;;5089692;27;37692;-56
2022/10/16 03:33:25;;;;;;;;;;;13.40;99.90;;;;;;5099304;27;37023;-54
2022/10/16 03:35:53;;;;;;;;;;;13.30;99.90;;;;;;5088411;27;38940;-55
2022/10/16 03:38:20;;;;;;;;;;;13.40;99.90;;;;;;5089184;27;38801;-53
2022/10/16 03:40:47;;;;;;;;;;;13.30;99.90;;;;;;5093988;27;37903;-56
2022/10/16 03:43:15;;;;;;;;;;;13.40;99.90;;;;;;5101846;27;36044;-54
2022/10/16 03:45:43;;;;;;;;;;;13.30;99.90;;;;;;5093722;27;38971;-56
2022/10/16 03:48:10;;;;;;;;;;;13.30;99.90;;;;;;5095012;27;39071;-56
2022/10/16 03:50:37;;;;;;;;;;;13.30;99.90;;;;;;5078530;27;38427;-55
2022/10/16 03:53:07;;;;;;;;;;;13.30;99.90;;;;;;5097938;27;36556;-55
2022/10/16 03:55:34;;;;;;;;;;;13.40;99.90;;;;;;5092663;27;37008;-56
2022/10/16 03:58:01;;;;;;;;;;;13.40;99.90;;;;;;5098878;27;38486;-56
2022/10/16 04:00:29;;;;;;;;;;;13.40;99.90;;;;;;5085674;27;37328;-55
2022/10/16 04:02:56;;;;;;;;;;;13.30;99.90;;;;;;5094116;27;35259;-55
2022/10/16 04:05:25;;;;;;;;;;;13.30;99.90;;;;;;5096961;27;38135;-56
2022/10/16 04:07:52;;;;;;;;;;;13.30;99.90;;;;;;5100073;27;39855;-55
2022/10/16 04:10:19;;;;;;;;;;;13.30;99.90;;;;;;5085745;27;37825;-56
2022/10/16 04:12:46;;;;;;;;;;;13.30;99.90;;;;;;5092777;27;36315;-55
2022/10/16 04:15:13;;;;;;;;;;;13.30;99.90;;;;;;5097733;27;37165;-54
2022/10/16 04:17:41;;;;;;;;;;;13.20;99.90;;;;;;5090335;27;39793;-54
2022/10/16 04:20:09;;;;;;;;;;;13.20;99.90;;;;;;5098653;27;38778;-56
2022/10/16 04:22:36;;;;;;;;;;;13.20;99.90;;;;;;5082755;27;36959;-56
2022/10/16 04:25:03;;;;;;;;;;;13.20;99.90;;;;;;5079281;27;40283;-56
2022/10/16 04:27:31;;;;;;;;;;;13.20;99.90;;;;;;5095172;27;40483;-55
2022/10/16 04:29:58;;;;;;;;;;;13.20;99.90;;;;;;5096627;27;37480;-55
2022/10/16 04:32:25;;;;;;;;;;;13.20;99.90;;;;;;5083502;27;38111;-55
2022/10/16 04:34:54;;;;;;;;;;;13.10;99.90;;;;;;5091396;27;37377;-55
2022/10/16 04:37:24;;;;;;;;;;;13.10;99.90;;;;;;5094127;27;38862;-53
2022/10/16 04:39:51;;;;;;;;;;;13.20;99.90;;;;;;5093368;27;40610;-56
2022/10/16 04:42:18;;;;;;;;;;;13.10;99.90;;;;;;5087319;27;36951;-56
2022/10/16 04:44:45;;;;;;;;;;;13.10;99.90;;;;;;5094216;27;37702;-55
2022/10/16 04:47:12;;;;;;;;;;;13.20;99.90;;;;;;5085655;27;38753;-55
2022/10/16 04:49:40;;;;;;;;;;;13.20;99.90;;;;;;5098060;27;37731;-56
2022/10/16 04:52:09;;;;;;;;;;;13.20;99.90;;;;;;5092219;27;36966;-55
2022/10/16 04:54:36;;;;;;;;;;;13.20;99.90;;;;;;5088216;27;39321;-56
2022/10/16 04:57:04;;;;;;;;;;;13.20;99.90;;;;;;5084507;27;39345;-56
2022/10/16 04:59:31;;;;;;;;;;;13.30;99.90;;;;;;5093279;27;38478;-55
2022/10/16 05:01:58;;;;;;;;;;;13.30;99.90;;;;;;5091812;27;38024;-55
2022/10/16 05:04:26;;;;;;;;;;;13.30;99.90;;;;;;5085599;27;37776;-54
2022/10/16 05:06:53;;;;;;;;;;;13.30;99.90;;;;;;5098782;27;38683;-55
2022/10/16 05:09:21;;;;;;;;;;;13.30;99.90;;;;;;5084509;27;37757;-55
2022/10/16 05:11:48;;;;;;;;;;;13.30;99.90;;;;;;5099345;27;37150;-55
2022/10/16 05:14:16;;;;;;;;;;;13.30;99.90;;;;;;5089114;27;36229;-56
2022/10/16 05:16:43;;;;;;;;;;;13.30;99.90;;;;;;5095529;27;39726;-55
2022/10/16 05:19:10;;;;;;;;;;;13.30;99.90;;;;;;5090431;27;37802;-55
2022/10/16 05:21:37;;;;;;;;;;;13.30;99.90;;;;;;5095461;27;37053;-55
2022/10/16 05:24:05;;;;;;;;;;;13.30;99.90;;;;;;5094622;27;38353;-54
2022/10/16 05:26:33;;;;;;;;;;;13.30;99.90;;;;;;5090725;27;37396;-55
2022/10/16 05:29:00;;;;;;;;;;;13.30;99.90;;;;;;5089368;27;37671;-54
2022/10/16 05:31:27;;;;;;;;;;;13.30;99.90;;;;;;5093837;27;37098;-55
2022/10/16 05:33:58;;;;;;;;;;;13.30;99.90;;;;;;5095701;27;37544;-56
2022/10/16 05:36:25;;;;;;;;;;;13.30;99.90;;;;;;5085734;27;38308;-56
2022/10/16 05:38:52;;;;;;;;;;;13.30;99.90;;;;;;5091630;27;39160;-55
2022/10/16 05:41:21;;;;;;;;;;;13.30;99.90;;;;;;5100653;27;36058;-57
2022/10/16 05:43:49;;;;;;;;;;;13.30;99.90;;;;;;5093827;27;37298;-57
2022/10/16 05:46:18;;;;;;;;;;;13.40;99.90;;;;;;5093716;27;37078;-57
2022/10/16 05:48:45;;;;;;;;;;;13.30;99.90;;;;;;5098714;27;37505;-56
2022/10/16 05:51:13;;;;;;;;;;;13.30;99.90;;;;;;5094933;27;37850;-56
2022/10/16 05:53:40;;;;;;;;;;;13.30;99.90;;;;;;5088871;27;37409;-53
2022/10/16 05:56:09;;;;;;;;;;;13.30;99.90;;;;;;5095726;27;37041;-56
2022/10/16 05:58:40;;;;;;;;;;;13.40;99.90;;;;;;5095256;27;36378;-54
2022/10/16 06:01:11;;;;;;;;;;;13.40;99.90;;;;;;5088598;27;39099;-56
2022/10/16 06:03:38;;;;;;;;;;;13.40;99.90;;;;;;5099000;27;37799;-55
2022/10/16 06:06:09;;;;;;;;;;;13.40;99.90;;;;;;5097188;27;38268;-56
2022/10/16 06:08:36;;;;;;;;;;;13.30;99.90;;;;;;5093374;27;37916;-55
2022/10/16 06:11:04;;;;;;;;;;;13.40;99.90;;;;;;5091063;27;36153;-55
2022/10/16 06:13:31;;;;;;;;;;;13.30;99.90;;;;;;5100228;27;38333;-56
2022/10/16 06:15:58;;;;;;;;;;;13.30;99.90;;;;;;5096156;27;39531;-55
2022/10/16 06:18:27;;;;;;;;;;;13.30;99.90;;;;;;5082733;27;38706;-54
2022/10/16 06:20:54;;;;;;;;;;;13.30;99.90;;;;;;5099494;27;36529;-54
2022/10/16 06:23:21;;;;;;;;;;;13.30;99.90;;;;;;5094839;27;38824;-56
2022/10/16 06:25:48;;;;;;;;;;;13.30;99.90;;;;;;5096923;27;39598;-54
2022/10/16 06:28:18;;;;;;;;;;;13.30;99.90;;;;;;5085359;27;37675;-56
2022/10/16 06:30:45;;;;;;;;;;;13.30;99.90;;;;;;5090638;27;37417;-55
2022/10/16 06:33:12;;;;;;;;;;;13.40;99.90;;;;;;5064876;27;38809;-55
2022/10/16 06:35:42;;;;;;;;;;;13.40;99.90;;;;;;5097051;27;39355;-56
2022/10/16 06:38:09;;;;;;;;;;;13.40;99.90;;;;;;5095344;27;37081;-56
2022/10/16 06:40:38;;;;;;;;;;;13.40;99.90;;;;;;5086660;27;36625;-57
2022/10/16 06:43:05;;;;;;;;;;;13.40;99.90;;;;;;5079953;27;38182;-56
2022/10/16 06:45:32;;;;;;;;;;;13.40;99.90;;;;;;5096265;27;38942;-56
2022/10/16 06:47:59;;;;;;;;;;;13.40;99.90;;;;;;5086699;27;39285;-56
2022/10/16 06:50:26;;;;;;;;;;;13.40;99.90;;;;;;5087397;27;37038;-55
2022/10/16 06:52:55;;;;;;;;;;;13.50;99.90;;;;;;5086896;27;39038;-53
2022/10/16 06:55:22;;;;;;;;;;;13.50;99.90;;;;;;5092322;27;38980;-57
2022/10/16 06:57:49;;;;;;;;;;;13.50;99.90;;;;;;5091767;27;39055;-56
2022/10/16 07:00:18;;;;;;;;;;;13.50;99.90;;;;;;5087397;27;35684;-57
2022/10/16 07:02:45;;;;;;;;;;;13.60;99.90;;;;;;5090745;27;36796;-55
2022/10/16 07:05:12;;;;;;;;;;;13.50;99.90;;;;;;5099117;27;38192;-55
2022/10/16 07:07:39;;;;;;;;;;;13.50;99.90;;;;;;5093859;27;36448;-55
2022/10/16 07:10:08;;;;;;;;;;;13.50;99.90;;;;;;5099694;27;37213;-55
2022/10/16 07:12:35;;;;;;;;;;;13.50;99.90;;;;;;5082158;27;37682;-54
2022/10/16 07:15:03;;;;;;;;;;;13.50;99.90;;;;;;5101181;27;39916;-56
2022/10/16 07:17:30;;;;;;;;;;;13.50;99.90;;;;;;5089061;27;38335;-57
2022/10/16 07:19:58;;;;;;;;;;;13.50;99.90;;;;;;5096010;27;37285;-53
2022/10/16 07:22:25;;;;;;;;;;;13.50;99.90;;;;;;5083129;27;38285;-53
2022/10/16 07:25:22;;;;;;;;;;;13.50;99.90;;;;;;5044520;27;38590;-56
2022/10/16 07:27:52;;;;;;;;;;;13.60;99.90;;;;;;5048858;27;37912;-56
2022/10/16 07:30:19;;;;;;;;;;;13.60;99.90;;;;;;5058576;27;37668;-54
2022/10/16 07:32:46;;;;;;;;;;;13.50;99.90;;;;;;5068816;27;38025;-54
2022/10/16 07:35:15;;;;;;;;;;;13.50;99.90;;;;;;5044308;22;38899;-59
2022/10/16 07:37:45;;;;;;;;;;;13.50;99.90;;;;;;5037680;27;39416;-58
2022/10/16 07:40:14;;;;;;;;;;;13.50;99.90;;;;;;5048618;27;36257;-58
2022/10/16 07:42:42;;;;;;;;;;;13.50;99.90;;;;;;5024499;27;39998;-57
2022/10/16 07:45:11;;;;;;;;;;;13.50;99.90;;;;;;5038625;27;39051;-58
2022/10/16 07:47:38;;;;;;;;;;;13.50;99.90;;;;;;5046905;27;38063;-57
2022/10/16 07:50:05;;;;;;;;;;;13.50;99.90;;;;;;5044036;27;36328;-57
2022/10/16 07:52:33;;;;;;;;;;;13.50;99.90;;;;;;5040558;27;39207;-58
2022/10/16 07:55:00;;;;;;;;;;;13.50;99.90;;;;;;5035665;27;39280;-58
2022/10/16 07:57:28;;;;;;;;;;;13.50;99.90;;;;;;5051544;28;37556;-58
2022/10/16 07:59:55;;;;;;;;;;;13.50;99.90;;;;;;5052661;28;38691;-57
2022/10/16 08:02:29;;;;;;;;;;;13.50;99.90;;;;;;5036674;28;38244;-58
2022/10/16 08:04:56;;;;;;;;;;;13.50;99.90;;;;;;5029792;28;37191;-58
2022/10/16 08:07:23;;;;;;;;;;;13.50;99.90;;;;;;5049198;27;37802;-58
2022/10/16 08:09:51;;;;;;;;;;;13.50;99.90;;;;;;5032881;27;36349;-58
2022/10/16 08:12:18;;;;;;;;;;;13.50;99.90;;;;;;5042849;27;39389;-56
2022/10/16 08:14:45;;;;;;;;;;;13.60;99.90;;;;;;5034709;28;38454;-58
2022/10/16 08:17:15;;;;;;;;;;;13.60;99.90;;;;;;5039658;27;36981;-58
2022/10/16 08:19:46;;;;;;;;;;;13.70;99.90;;;;;;5046800;27;37522;-58
2022/10/16 08:22:17;;;;;;;;;;;13.70;99.90;;;;;;5051316;28;37303;-58
2022/10/16 08:24:44;;;;;;;;;;;13.80;99.90;;;;;;5024527;27;37747;-58
2022/10/16 08:27:12;;;;;;;;;;;13.90;99.90;;;;;;5041626;27;37870;-58
2022/10/16 08:29:40;;;;;;;;;;;14.00;99.90;;;;;;5045569;27;36363;-59
2022/10/16 08:32:07;;;;;;;;;;;14.10;99.90;;;;;;5041661;27;38925;-58
2022/10/16 08:34:34;;;;;;;;;;;14.20;99.90;;;;;;5028987;27;37314;-58
2022/10/16 08:37:02;;;;;;;;;;;14.20;99.90;;;;;;5050069;28;39113;-58
2022/10/16 08:39:29;;;;;;;;;;;14.30;99.90;;;;;;5045015;27;36682;-59
2022/10/16 08:42:17;;;;;;;;;;;14.40;99.90;;;;;;5044126;27;38112;-58
2022/10/16 08:45:02;;;;;;;;;;;14.40;99.90;;;;;;5018249;27;38792;-59
2022/10/16 08:47:36;;;;;;;;;;;14.40;99.90;;;;;;5041005;27;37668;-58
2022/10/16 08:50:27;;;;;;;;;;;14.40;99.90;;;;;;5011589;27;35101;-58
2022/10/16 08:56:39;;;;;;;;;;;14.50;99.90;;;;;;4809689;22;20372;-58
2022/10/16 08:59:29;;;;;;;;;;;14.50;99.90;;;;;;4964674;27;37839;-58
2022/10/16 09:10:21;;;;;;;;;;;14.70;99.90;;;;;;5043919;28;19935;-55
2022/10/16 09:22:01;;;;;;;;;;;14.90;99.90;;;;;;4958121;27;19996;-55
2022/10/16 09:30:38;;;;;;;;;;;15.00;99.90;;;;;;4989013;22;40318;-56
2022/10/16 09:36:10;;;;;;;;;;;15.20;99.90;;;;;;4939818;27;38250;-55
2022/10/16 14:11:02;;;;;;;;;;;15.90;99.90;;;;;;5081494;27;39181;-91
2022/10/16 14:13:44;;;;;;;;;;;15.90;99.90;;;;;;5081913;27;39448;-89
2022/10/16 14:22:32;;;;;;;;;;;15.90;99.90;;;;;;5106442;27;38471;-89
2022/10/16 14:25:02;;;;;;;;;;;15.90;99.90;;;;;;5112108;27;40769;-88
2022/10/16 14:27:33;;;;;;;;;;;15.90;99.90;;;;;;5103961;28;37593;-89
2022/10/16 14:30:13;;;;;;;;;;;15.90;99.90;;;;;;5099139;27;37003;-90
2022/10/16 14:32:41;;;;;;;;;;;15.80;99.90;;;;;;5114471;28;40280;-91
2022/10/16 14:40:15;;;;;;;;;;;15.80;99.90;;;;;;5032172;27;19931;-54
2022/10/16 14:42:44;;;;;;;;;;;15.70;99.90;;;;;;5034868;27;38386;-56
2022/10/16 14:45:12;;;;;;;;;;;15.70;99.90;;;;;;5038802;27;40743;-52
2022/10/16 14:59:29;;;;;;;;;;;15.50;99.90;;;;;;5188968;22;19918;-95
2022/10/16 15:01:56;;;;;;;;;;;15.50;99.90;;;;;;5036470;28;35259;-95
2022/10/16 15:04:23;;;;;;;;;;;15.50;99.90;;;;;;5057463;28;36969;-95
2022/10/16 15:06:50;;;;;;;;;;;15.40;99.90;;;;;;5069239;28;37871;-96
2022/10/16 15:09:18;;;;;;;;;;;15.40;99.90;;;;;;5062731;28;38189;-94
2022/10/16 15:11:46;;;;;;;;;;;15.40;99.90;;;;;;5059371;27;35501;-95
2022/10/16 15:14:16;;;;;;;;;;;15.40;99.90;;;;;;5070028;28;40782;-94
2022/10/16 15:16:45;;;;;;;;;;;15.40;99.90;;;;;;5058241;28;38791;-95
2022/10/16 15:19:13;;;;;;;;;;;15.40;99.90;;;;;;5057528;28;37758;-93
2022/10/16 15:27:41;;;;;;;;;;;15.30;99.90;;;;;;5048654;22;40489;-58
2022/10/16 15:30:08;;;;;;;;;;;15.20;99.90;;;;;;5073729;27;36374;-58
2022/10/16 15:32:37;;;;;;;;;;;15.20;99.90;;;;;;5074522;27;36585;-60
2022/10/16 15:35:04;;;;;;;;;;;15.20;99.90;;;;;;5069689;27;41127;-55
2022/10/16 15:37:32;;;;;;;;;;;15.10;99.90;;;;;;5074257;27;39449;-56
2022/10/16 15:39:59;;;;;;;;;;;15.10;99.90;;;;;;5076681;27;38055;-57
2022/10/16 15:42:26;;;;;;;;;;;15.10;99.90;;;;;;5059444;27;36349;-57
2022/10/16 15:44:53;;;;;;;;;;;15.10;99.90;;;;;;5056584;27;39299;-57
2022/10/16 15:47:20;;;;;;;;;;;15.10;99.90;;;;;;5063911;27;40024;-57
2022/10/16 15:49:49;;;;;;;;;;;15.10;99.90;;;;;;5067968;27;41250;-60
2022/10/16 15:52:16;;;;;;;;;;;15.00;99.90;;;;;;5068351;27;35495;-58
2022/10/16 15:54:44;;;;;;;;;;;15.00;99.90;;;;;;5064978;27;41266;-58
2022/10/16 15:57:11;;;;;;;;;;;15.00;99.90;;;;;;5069471;27;41341;-56
2022/10/16 15:59:38;;;;;;;;;;;14.90;99.90;;;;;;5065406;27;37909;-57
2022/10/16 16:02:06;;;;;;;;;;;14.90;99.90;;;;;;5071261;27;36273;-57
2022/10/16 16:04:33;;;;;;;;;;;14.80;99.90;;;;;;5075470;27;38626;-57
2022/10/16 16:07:02;;;;;;;;;;;14.80;99.90;;;;;;5023702;27;41100;-57
2022/10/16 16:09:38;;;;;;;;;;;14.70;99.90;;;;;;4869442;27;37768;-60
2022/10/16 16:12:05;;;;;;;;;;;14.70;99.90;;;;;;5008778;27;35520;-57
2022/10/16 16:14:32;;;;;;;;;;;14.60;99.90;;;;;;5072379;27;38208;-58
2022/10/16 16:16:59;;;;;;;;;;;14.50;99.90;;;;;;5064538;27;37095;-58
2022/10/16 16:19:27;;;;;;;;;;;14.50;99.90;;;;;;5063941;27;37449;-60
2022/10/16 16:21:54;;;;;;;;;;;14.50;99.90;;;;;;5059785;27;36686;-58
2022/10/16 16:24:22;;;;;;;;;;;14.40;99.90;;;;;;5071662;27;37763;-58
2022/10/16 16:26:49;;;;;;;;;;;14.40;99.90;;;;;;5070364;27;37775;-58
2022/10/16 16:29:16;;;;;;;;;;;14.30;99.90;;;;;;5075987;27;38902;-58
2022/10/16 16:31:44;;;;;;;;;;;14.30;99.90;;;;;;5078340;27;36404;-58
2022/10/16 16:34:11;;;;;;;;;;;14.20;99.90;;;;;;5079795;27;38481;-57
2022/10/16 16:36:39;;;;;;;;;;;14.20;99.90;;;;;;5079209;27;37785;-57
2022/10/16 16:39:07;;;;;;;;;;;14.20;99.90;;;;;;5073258;27;37866;-61
2022/10/16 16:41:35;;;;;;;;;;;14.20;99.90;;;;;;5072277;27;36803;-58
2022/10/16 16:44:03;;;;;;;;;;;14.10;99.90;;;;;;5075192;27;38549;-57
2022/10/16 16:46:31;;;;;;;;;;;14.10;99.90;;;;;;5074876;27;39653;-56
2022/10/16 16:48:59;;;;;;;;;;;14.10;99.90;;;;;;5076626;27;37768;-57
2022/10/16 16:51:26;;;;;;;;;;;14.00;99.90;;;;;;5076813;27;37020;-58
2022/10/16 16:53:54;;;;;;;;;;;14.00;99.90;;;;;;5078459;27;38734;-60
2022/10/16 16:56:22;;;;;;;;;;;14.00;99.90;;;;;;5080262;27;39753;-58
2022/10/16 16:58:52;;;;;;;;;;;14.00;99.90;;;;;;5080041;27;37554;-57
2022/10/16 17:01:19;;;;;;;;;;;14.00;99.90;;;;;;5081702;27;36887;-57
2022/10/16 17:03:47;;;;;;;;;;;13.90;99.90;;;;;;5078486;27;38609;-58
2022/10/16 17:06:15;;;;;;;;;;;13.90;99.90;;;;;;5080777;27;38672;-57
2022/10/16 17:08:42;;;;;;;;;;;13.80;99.90;;;;;;5071101;27;38159;-58
2022/10/16 17:11:13;;;;;;;;;;;13.70;99.90;;;;;;5081980;27;37088;-58
2022/10/16 17:13:40;;;;;;;;;;;13.70;99.90;;;;;;5081061;27;39498;-57
2022/10/16 17:16:09;;;;;;;;;;;13.70;99.90;;;;;;5079688;27;38954;-57
2022/10/16 17:18:36;;;;;;;;;;;13.70;99.90;;;;;;5078087;27;38287;-59
2022/10/16 17:21:04;;;;;;;;;;;13.60;99.90;;;;;;5079180;27;34748;-58
2022/10/16 17:23:32;;;;;;;;;;;13.60;99.90;;;;;;5081810;27;39216;-58
2022/10/16 17:26:04;;;;;;;;;;;13.60;99.90;;;;;;5080972;27;37717;-58
2022/10/16 17:28:31;;;;;;;;;;;13.60;99.90;;;;;;5068895;27;36260;-59
2022/10/16 17:31:07;;;;;;;;;;;13.50;99.90;;;;;;5074179;27;36542;-59
2022/10/16 17:33:35;;;;;;;;;;;13.50;99.90;;;;;;5076976;27;38933;-56
2022/10/16 17:36:03;;;;;;;;;;;13.40;99.90;;;;;;5079799;27;41913;-58
2022/10/16 17:38:30;;;;;;;;;;;13.40;99.90;;;;;;5084212;27;37784;-53
2022/10/16 17:40:57;;;;;;;;;;;13.40;99.90;;;;;;5079595;27;37185;-59
2022/10/16 17:43:26;;;;;;;;;;;13.40;99.90;;;;;;5081658;27;39486;-59
2022/10/16 17:45:53;;;;;;;;;;;13.40;99.90;;;;;;5083910;27;37128;-59
2022/10/16 17:48:20;;;;;;;;;;;13.30;99.90;;;;;;5081072;27;37821;-57
2022/10/16 17:50:49;;;;;;;;;;;13.30;99.90;;;;;;5076885;27;39203;-57
2022/10/16 17:53:16;;;;;;;;;;;13.20;99.90;;;;;;5077608;27;37828;-60
2022/10/16 17:55:43;;;;;;;;;;;13.20;99.90;;;;;;5077588;27;38515;-57
2022/10/16 17:58:10;;;;;;;;;;;13.20;99.90;;;;;;5079450;27;38188;-58
2022/10/16 18:00:37;;;;;;;;;;;13.10;99.90;;;;;;5082666;27;38276;-58
2022/10/16 18:03:05;;;;;;;;;;;13.10;99.90;;;;;;5082967;27;38268;-58
2022/10/16 18:05:32;;;;;;;;;;;13.00;99.90;;;;;;5085234;27;38805;-59
2022/10/16 18:08:00;;;;;;;;;;;13.10;99.90;;;;;;5082408;27;37456;-56
2022/10/16 18:10:28;;;;;;;;;;;13.00;99.90;;;;;;5079393;27;35632;-48
2022/10/16 18:12:55;;;;;;;;;;;13.00;99.90;;;;;;5078692;27;39066;-56
2022/10/16 18:15:23;;;;;;;;;;;12.90;99.90;;;;;;5084167;27;38932;-60
2022/10/16 18:17:50;;;;;;;;;;;13.00;99.90;;;;;;5080138;27;38279;-59
2022/10/16 18:20:17;;;;;;;;;;;12.90;99.90;;;;;;5081531;27;36378;-59
2022/10/16 18:22:44;;;;;;;;;;;12.90;99.90;;;;;;5080647;27;38223;-57
2022/10/16 18:25:13;;;;;;;;;;;12.90;99.90;;;;;;5082217;27;39347;-61
2022/10/16 18:27:40;;;;;;;;;;;12.90;99.90;;;;;;5082623;27;37498;-59
2022/10/16 18:30:07;;;;;;;;;;;12.90;99.90;;;;;;5082179;27;37189;-58
2022/10/16 18:32:34;;;;;;;;;;;12.90;99.90;;;;;;5083354;27;38506;-58
2022/10/16 18:35:02;;;;;;;;;;;12.90;99.90;;;;;;5083484;27;38042;-58
2022/10/16 18:37:29;;;;;;;;;;;12.90;99.90;;;;;;5081862;27;37570;-57
2022/10/16 18:39:56;;;;;;;;;;;12.90;99.90;;;;;;5080269;27;39822;-59
2022/10/16 18:42:24;;;;;;;;;;;12.80;99.90;;;;;;5082560;27;40251;-58
2022/10/16 18:44:51;;;;;;;;;;;12.90;99.90;;;;;;5082598;27;38418;-58
2022/10/16 18:47:19;;;;;;;;;;;12.80;99.90;;;;;;5081844;27;39201;-61
2022/10/16 18:49:48;;;;;;;;;;;12.90;99.90;;;;;;5082528;27;35094;-61
2022/10/16 18:52:15;;;;;;;;;;;12.80;99.90;;;;;;5082229;27;41020;-57
2022/10/16 18:54:42;;;;;;;;;;;12.90;99.90;;;;;;5077810;27;36754;-58
2022/10/16 18:57:10;;;;;;;;;;;12.90;99.90;;;;;;5082789;27;38609;-59
2022/10/16 18:59:38;;;;;;;;;;;12.90;99.90;;;;;;5082726;27;37982;-59
2022/10/16 19:02:09;;;;;;;;;;;12.80;99.90;;;;;;5081513;27;38405;-59
2022/10/16 19:04:36;;;;;;;;;;;12.70;99.90;;;;;;5079678;27;38165;-59
2022/10/16 19:07:03;;;;;;;;;;;12.70;99.90;;;;;;5081553;27;38465;-57
2022/10/16 19:09:30;;;;;;;;;;;12.70;99.90;;;;;;5081080;27;35274;-58
2022/10/16 19:11:58;;;;;;;;;;;12.70;99.90;;;;;;5079074;27;39216;-58
2022/10/16 19:14:26;;;;;;;;;;;12.70;99.90;;;;;;5080624;27;41682;-58
2022/10/16 19:16:54;;;;;;;;;;;12.70;99.90;;;;;;5072054;27;38896;-58
2022/10/16 19:19:22;;;;;;;;;;;12.70;99.90;;;;;;5080888;27;38137;-58
2022/10/16 19:21:55;;;;;;;;;;;12.70;99.90;;;;;;5082397;27;38395;-58
2022/10/16 19:24:22;;;;;;;;;;;12.80;99.90;;;;;;5079538;27;38608;-57
2022/10/16 19:26:49;;;;;;;;;;;12.80;99.90;;;;;;5076160;27;41668;-57
2022/10/16 19:29:16;;;;;;;;;;;12.80;99.90;;;;;;5082214;27;36842;-57
2022/10/16 19:31:43;;;;;;;;;;;12.80;99.90;;;;;;5069259;27;37159;-59
2022/10/16 19:34:12;;;;;;;;;;;12.80;99.90;;;;;;5074861;27;36805;-59
2022/10/16 19:36:40;;;;;;;;;;;12.80;99.90;;;;;;5075671;27;39303;-58
2022/10/16 19:39:08;;;;;;;;;;;12.80;99.90;;;;;;5080518;27;39558;-56
2022/10/16 19:41:36;;;;;;;;;;;12.80;99.90;;;;;;5076918;27;38560;-59
2022/10/16 19:44:04;;;;;;;;;;;12.80;99.90;;;;;;5079982;27;41091;-58
2022/10/16 19:46:32;;;;;;;;;;;12.80;99.90;;;;;;5080245;27;37943;-58
2022/10/16 19:49:00;;;;;;;;;;;12.90;99.90;;;;;;5080689;27;36313;-58
2022/10/16 19:51:29;;;;;;;;;;;12.90;99.90;;;;;;5078591;27;37331;-54
2022/10/16 19:53:58;;;;;;;;;;;12.90;99.90;;;;;;5072799;27;38426;-53
2022/10/16 19:56:26;;;;;;;;;;;12.90;99.90;;;;;;5067313;27;37455;-52